Time;durP1;ratioP1;P1;durP2;ratioP2;P2;SDS_P1;SDS_P2;PMS_P1;PMS_P2;Temp;Humidity;BMP_temperature;BMP_pressure;BME280_temperature;BME280_humidity;BME280_pressure;Samples;Min_cycle;Max_cycle;Signal;HPM_P1;HPM_P2
2022/05/31 00:02:16;;;;;;;9.00;4.30;;;9.70;99.90;;;-141.84;75.72;18488.97;5072129;28;20279;-57
2022/05/31 00:04:46;;;;;;;7.23;4.23;;;9.70;99.90;;;-141.84;75.55;18456.47;5071485;28;20185;-58
2022/05/31 00:07:16;;;;;;;6.67;4.00;;;9.70;99.90;;;-141.84;75.77;18460.53;5071352;28;20687;-55
2022/05/31 00:09:44;;;;;;;7.17;3.67;;;9.70;99.90;;;-141.84;75.79;18452.41;5071620;28;20191;-55
2022/05/31 00:12:13;;;;;;;6.03;4.20;;;9.70;99.90;;;-141.84;76.13;18460.53;5071415;28;20615;-57
2022/05/31 00:14:41;;;;;;;6.63;4.30;;;9.60;99.90;;;-141.84;76.37;18442.25;5071590;28;20227;-57
2022/05/31 00:17:09;;;;;;;9.60;4.37;;;9.60;99.90;;;-141.84;76.26;18440.22;5071092;28;20201;-56
2022/05/31 00:19:38;;;;;;;8.13;4.53;;;9.70;99.90;;;-141.84;77.37;18430.06;5071228;28;20700;-55
2022/05/31 00:22:11;;;;;;;7.77;4.50;;;9.60;99.90;;;-141.84;77.26;18417.84;5071430;28;20410;-52
2022/05/31 00:24:41;;;;;;;8.07;4.33;;;9.70;99.90;;;-141.84;78.25;18421.91;5071548;28;20182;-55
2022/05/31 00:27:12;;;;;;;5.33;4.07;;;9.70;99.90;;;-141.84;78.05;18401.59;5071313;28;20204;-54
2022/05/31 00:29:40;;;;;;;9.13;4.20;;;9.70;99.90;;;-141.84;78.48;18464.59;5071461;28;20185;-56
2022/05/31 00:32:13;;;;;;;5.13;3.80;;;9.70;99.90;;;-141.84;77.22;18436.16;5071167;28;20301;-56
2022/05/31 00:34:46;;;;;;;5.93;3.73;;;9.80;99.90;;;-141.84;76.99;18434.13;5071417;28;20555;-51
2022/05/31 00:37:15;;;;;;;6.23;3.27;;;9.80;99.90;;;-141.84;77.33;18444.28;5072531;28;20189;-52
2022/05/31 00:39:44;;;;;;;4.97;4.13;;;9.90;99.90;;;-141.84;77.56;18448.34;5074796;28;20221;-53
2022/05/31 00:42:18;;;;;;;6.93;3.73;;;9.90;99.90;;;-141.84;76.15;18440.22;5074929;28;20188;-53
2022/05/31 00:44:47;;;;;;;5.80;4.00;;;10.00;99.90;;;-141.84;75.95;18438.19;5075014;28;20188;-54
2022/05/31 00:47:26;;;;;;;5.93;3.53;;;10.10;99.90;;;-141.84;76.03;18454.44;5074796;28;20286;-56
2022/05/31 00:50:00;;;;;;;5.13;4.17;;;10.10;99.90;;;-141.84;75.64;18462.56;5075221;28;20272;-53
2022/05/31 00:52:34;;;;;;;5.47;4.00;;;10.20;99.90;;;-141.84;75.38;18474.75;5074660;28;20655;-57
2022/05/31 00:55:09;;;;;;;5.23;4.00;;;10.30;99.90;;;-141.84;75.81;18466.63;5074779;28;20195;-54
2022/05/31 00:57:41;;;;;;;5.63;3.70;;;10.30;99.90;;;-141.84;76.40;18446.31;5074589;28;20184;-56
2022/05/31 01:00:16;;;;;;;5.60;3.83;;;10.30;99.90;;;-141.84;77.32;18440.22;5074709;28;20208;-56
2022/05/31 01:02:49;;;;;;;7.83;4.27;;;10.20;99.90;;;-141.84;77.20;18444.28;5074454;28;20215;-54
2022/05/31 01:05:19;;;;;;;5.43;4.23;;;10.30;99.90;;;-141.84;75.55;18466.63;5074761;28;20189;-56
2022/05/31 01:07:47;;;;;;;5.40;4.43;;;10.30;99.90;;;-141.84;75.19;18470.69;5074560;28;20181;-54
2022/05/31 01:10:17;;;;;;;4.97;4.30;;;10.40;99.90;;;-141.84;75.40;18462.56;5074541;28;20575;-56
2022/05/31 01:12:49;;;;;;;5.30;4.20;;;10.40;99.90;;;-141.84;75.42;18482.88;5073936;28;20656;-56
2022/05/31 01:15:20;;;;;;;5.70;4.07;;;10.40;99.90;;;-141.84;76.19;18456.47;5074483;28;20199;-54
2022/05/31 01:17:48;;;;;;;6.27;3.90;;;10.40;99.90;;;-141.84;77.02;18452.41;5074269;28;20276;-57
2022/05/31 01:20:20;;;;;;;5.07;4.17;;;10.40;99.90;;;-141.84;76.37;18468.66;5074009;28;20738;-57
2022/05/31 01:22:53;;;;;;;6.50;4.27;;;10.40;99.90;;;-141.84;75.70;18466.63;5074321;28;20272;-55
2022/05/31 01:25:52;;;;;;;5.67;4.70;;;10.40;99.90;;;-141.84;76.74;18432.09;5074287;28;20274;-58
2022/05/31 01:28:38;;;;;;;6.33;4.63;;;10.40;99.90;;;-141.84;75.68;18444.28;5074007;28;20280;-56
2022/05/31 01:31:16;;;;;;;7.93;5.40;;;10.30;99.90;;;-141.84;75.58;18440.22;5074200;28;20181;-57
2022/05/31 01:33:51;;;;;;;7.57;5.33;;;10.30;99.90;;;-141.84;76.61;18421.91;5073983;28;20184;-55
2022/05/31 01:36:28;;;;;;;7.30;5.00;;;10.30;99.90;;;-141.84;76.00;18428.03;5074126;28;20232;-55
2022/05/31 01:39:02;;;;;;;5.83;4.20;;;10.30;99.90;;;-141.84;75.63;18452.41;5074062;28;20271;-56
2022/05/31 01:41:39;;;;;;;7.50;4.73;;;10.30;99.90;;;-141.84;75.63;18438.19;5073538;28;20216;-53
2022/05/31 01:44:12;;;;;;;5.53;4.43;;;10.30;99.90;;;-141.84;76.37;18430.06;5074003;28;20207;-58
2022/05/31 01:46:41;;;;;;;6.57;5.53;;;10.20;99.90;;;-141.84;77.31;18432.09;5073804;28;20532;-57
2022/05/31 01:49:14;;;;;;;9.07;6.37;;;10.10;99.90;;;-141.84;78.42;18389.41;5073549;28;20201;-54
2022/05/31 01:51:46;;;;;;;7.57;5.50;;;10.00;99.90;;;-141.84;78.60;18383.31;5073944;28;20263;-57
2022/05/31 01:54:18;;;;;;;8.23;5.67;;;10.00;99.90;;;-141.84;78.27;18430.06;5073772;28;20264;-55
2022/05/31 01:56:52;;;;;;;6.50;5.47;;;9.90;99.90;;;-141.84;78.27;18401.59;5073687;28;20185;-55
2022/05/31 01:59:20;;;;;;;6.37;5.10;;;9.90;99.90;;;-141.84;78.33;18411.75;5073603;28;20309;-55
2022/05/31 02:01:49;;;;;;;7.40;5.67;;;9.90;99.90;;;-141.84;78.87;18387.38;5073433;28;20227;-56
2022/05/31 02:04:18;;;;;;;6.10;5.50;;;9.80;99.90;;;-141.84;79.40;18425.97;5073576;28;20200;-54
2022/05/31 02:07:10;;;;;;;10.07;7.20;;;9.80;99.90;;;-141.84;79.79;18377.22;5073209;28;20203;-55
2022/05/31 02:09:35;;;;;;;6.97;6.27;;;9.70;99.90;;;-141.84;80.20;18383.31;5072954;28;20196;-55
2022/05/31 02:12:04;;;;;;;6.60;6.00;;;9.70;99.90;;;-141.84;81.24;18363.00;5073076;28;20287;-55
2022/05/31 02:14:32;;;;;;;7.50;5.80;;;9.60;99.90;;;-141.84;81.48;18330.50;5072732;28;20292;-56
2022/05/31 02:17:00;;;;;;;8.17;5.80;;;9.50;99.90;;;-141.84;80.87;18326.44;5073042;28;20323;-55
2022/05/31 02:19:28;;;;;;;6.50;5.70;;;9.50;99.90;;;-141.84;81.01;18358.94;5073051;28;20204;-57
2022/05/31 02:22:00;;;;;;;7.27;6.23;;;9.50;99.90;;;-141.84;81.24;18352.84;5073239;28;20220;-55
2022/05/31 02:24:28;;;;;;;8.40;6.03;;;9.50;99.90;;;-141.84;81.56;18314.25;5072990;28;20629;-57
2022/05/31 02:26:57;;;;;;;8.23;6.97;;;9.50;99.90;;;-141.84;81.89;18330.50;5072756;28;20209;-57
2022/05/31 02:29:29;;;;;;;8.50;6.90;;;9.40;99.90;;;-141.84;82.63;18330.50;5072780;28;20209;-54
2022/05/31 02:32:00;;;;;;;8.50;7.13;;;9.30;99.90;;;-141.84;82.66;18298.00;5072599;28;20185;-54
2022/05/31 02:34:40;;;;;;;8.17;6.20;;;9.30;99.90;;;-141.84;82.71;18300.03;5072777;28;20207;-53
2022/05/31 02:37:10;;;;;;;7.10;6.13;;;9.30;99.90;;;-141.84;83.41;18293.94;5072647;28;20189;-54
2022/05/31 02:39:39;;;;;;;7.13;6.10;;;9.20;99.90;;;-141.84;82.78;18308.16;5072317;28;20205;-54
2022/05/31 02:42:09;;;;;;;8.37;5.47;;;9.20;99.90;;;-141.84;83.56;18289.88;5072256;28;20300;-56
2022/05/31 02:44:38;;;;;;;6.97;5.40;;;9.20;99.90;;;-141.84;83.59;18265.50;5072540;28;20272;-54
2022/05/31 02:47:08;;;;;;;8.97;5.97;;;9.20;99.90;;;-141.84;84.23;18249.25;5072086;28;20205;-55
2022/05/31 02:49:38;;;;;;;9.93;5.77;;;9.20;99.90;;;-141.84;83.75;18259.41;5072432;28;20247;-55
2022/05/31 02:52:07;;;;;;;9.50;6.13;;;9.20;99.90;;;-141.84;83.92;18249.25;5072570;28;20200;-57
2022/05/31 02:54:37;;;;;;;6.60;5.73;;;9.10;99.90;;;-141.84;84.26;18255.34;5072284;28;20203;-52
2022/05/31 02:57:06;;;;;;;8.80;5.90;;;9.10;99.90;;;-141.84;84.28;18253.31;5072407;28;20291;-54
2022/05/31 02:59:33;;;;;;;7.23;6.03;;;9.10;99.90;;;-141.84;83.92;18214.69;5071502;28;20209;-55
2022/05/31 03:02:02;;;;;;;7.50;6.10;;;9.10;99.90;;;-141.84;84.30;18247.22;5071956;28;20220;-54
2022/05/31 03:04:29;;;;;;;7.23;5.73;;;9.10;99.90;;;-141.84;85.06;18206.56;5071889;28;20739;-55
2022/05/31 03:07:01;;;;;;;7.07;6.33;;;9.00;99.90;;;-141.84;84.94;18210.63;5072140;28;20207;-55
2022/05/31 03:09:31;;;;;;;7.67;5.77;;;9.00;99.90;;;-141.84;84.90;18226.88;5072114;28;20188;-56
2022/05/31 03:12:08;;;;;;;6.83;5.57;;;9.00;99.90;;;-141.84;84.74;18206.56;5071761;28;20188;-54
2022/05/31 03:14:44;;;;;;;7.17;5.53;;;9.00;99.90;;;-141.84;85.15;18216.72;5071927;28;20275;-56
2022/05/31 03:17:18;;;;;;;7.93;6.27;;;9.00;99.90;;;-141.84;84.72;18232.97;5072169;28;20224;-55
2022/05/31 03:19:55;;;;;;;7.43;6.13;;;9.10;99.90;;;-141.84;84.75;18224.84;5071887;28;20185;-55
2022/05/31 03:22:28;;;;;;;9.17;5.80;;;9.10;99.90;;;-141.84;84.00;18210.63;5071550;28;20755;-57
2022/05/31 03:25:02;;;;;;;7.77;6.30;;;9.10;99.90;;;-141.84;83.66;18228.91;5071891;28;20268;-56
2022/05/31 03:27:32;;;;;;;8.10;6.30;;;9.20;99.90;;;-141.84;84.67;18228.91;5071681;28;20184;-55
2022/05/31 03:30:03;;;;;;;7.47;6.40;;;9.20;99.90;;;-141.84;85.24;18202.50;5072034;28;20287;-56
2022/05/31 03:32:36;;;;;;;7.93;6.10;;;9.20;99.90;;;-141.84;84.43;18208.59;5071654;28;20268;-55
2022/05/31 03:35:05;;;;;;;8.23;6.57;;;9.30;99.90;;;-141.84;83.14;18239.09;5071688;28;20189;-55
2022/05/31 03:37:34;;;;;;;8.73;6.77;;;9.30;99.90;;;-141.84;83.54;18214.69;5071677;28;20196;-55
2022/05/31 03:40:03;;;;;;;8.33;6.27;;;9.40;99.90;;;-141.84;83.80;18214.69;5071456;28;20303;-54
2022/05/31 03:42:35;;;;;;;7.17;6.47;;;9.40;99.90;;;-141.84;82.88;18237.06;5071447;28;20215;-53
2022/05/31 03:45:03;;;;;;;8.10;6.40;;;9.40;99.90;;;-141.84;82.74;18235.00;5071297;28;20604;-57
2022/05/31 03:47:31;;;;;;;6.97;6.00;;;9.40;99.90;;;-141.84;82.85;18243.16;5071341;28;20287;-55
2022/05/31 03:49:59;;;;;;;8.57;6.70;;;9.50;99.90;;;-141.84;82.81;18249.25;5071533;28;20201;-56
2022/05/31 03:52:27;;;;;;;7.97;6.20;;;9.50;99.90;;;-141.84;82.52;18249.25;5071158;28;20207;-55
2022/05/31 03:54:55;;;;;;;8.53;6.30;;;9.50;99.90;;;-141.84;81.48;18257.38;5071184;28;20661;-56
2022/05/31 03:57:23;;;;;;;6.67;5.73;;;9.50;99.90;;;-141.84;82.31;18228.91;5071211;28;20197;-54
2022/05/31 03:59:52;;;;;;;7.13;6.27;;;9.50;99.90;;;-141.84;82.31;18241.13;5071605;28;20291;-55
2022/05/31 04:02:20;;;;;;;8.17;6.23;;;9.50;99.90;;;-141.84;80.86;18259.41;5071242;28;20585;-53
2022/05/31 04:04:48;;;;;;;8.50;6.00;;;9.60;99.90;;;-141.84;79.88;18265.50;5071422;28;20292;-55
2022/05/31 04:07:16;;;;;;;6.77;6.03;;;9.60;99.90;;;-141.84;80.00;18265.50;5071420;28;20210;-55
2022/05/31 04:09:44;;;;;;;8.93;6.30;;;9.70;99.90;;;-141.84;79.39;18300.03;5071370;28;20196;-54
2022/05/31 04:12:13;;;;;;;7.40;6.00;;;9.70;99.90;;;-141.84;80.33;18285.81;5074056;28;20304;-54
2022/05/31 04:14:41;;;;;;;8.77;6.03;;;9.70;99.90;;;-141.84;79.84;18277.69;5075552;28;20287;-53
2022/05/31 04:17:10;;;;;;;8.33;5.93;;;9.70;99.90;;;-141.84;79.66;18293.94;5075272;28;20201;-57
2022/05/31 04:19:38;;;;;;;6.90;5.80;;;9.70;99.90;;;-141.84;80.11;18263.47;5075018;28;20295;-56
2022/05/31 04:22:06;;;;;;;7.27;6.00;;;9.60;99.90;;;-141.84;80.78;18259.41;5074961;28;20246;-55
2022/05/31 04:24:34;;;;;;;7.43;6.00;;;9.60;99.90;;;-141.84;80.24;18283.78;5076330;28;20204;-55
2022/05/31 04:27:02;;;;;;;9.77;6.07;;;9.70;99.90;;;-141.84;80.67;18245.19;5076644;28;20290;-54
2022/05/31 04:29:31;;;;;;;7.27;5.97;;;9.70;99.90;;;-141.84;80.16;18289.88;5075092;28;20574;-56
2022/05/31 04:31:59;;;;;;;8.03;5.47;;;9.80;99.90;;;-141.84;79.60;18265.50;5074872;28;20617;-56
2022/05/31 04:34:28;;;;;;;9.07;6.30;;;9.90;99.90;;;-141.84;78.43;18342.69;5075024;28;20236;-53
2022/05/31 04:36:58;;;;;;;6.87;5.37;;;10.00;99.90;;;-141.84;77.62;18338.63;5074820;28;20236;-54
2022/05/31 04:39:26;;;;;;;6.70;5.90;;;10.20;99.90;;;-141.84;77.85;18350.81;5074784;28;20205;-57
2022/05/31 04:41:54;;;;;;;7.30;5.97;;;10.30;99.90;;;-141.84;76.30;18346.75;5074412;28;20204;-57
2022/05/31 04:44:22;;;;;;;6.30;5.70;;;10.50;99.90;;;-141.84;76.06;18367.06;5074496;28;20205;-55
2022/05/31 04:46:50;;;;;;;7.37;6.00;;;10.70;99.90;;;-141.84;73.87;18428.03;5074479;28;20197;-55
2022/05/31 04:49:18;;;;;;;7.43;5.63;;;11.00;99.90;;;-141.84;72.38;18442.25;5074672;28;20230;-54
2022/05/31 04:51:48;;;;;;;7.00;5.10;;;11.30;99.90;;;-141.84;68.68;18531.63;5074680;28;20201;-55
2022/05/31 04:54:17;;;;;;;6.60;5.37;;;11.90;99.90;;;-141.84;63.37;18716.53;5074686;28;20209;-54
2022/05/31 04:56:45;;;;;;;5.83;4.17;;;12.70;99.90;;;-141.84;57.51;18897.34;5074668;28;20236;-54
2022/05/31 04:59:14;;;;;;;5.43;4.93;;;13.70;99.90;;;-141.84;53.20;19035.53;5074760;28;20211;-53
2022/05/31 05:01:41;;;;;;;6.18;4.45;;;14.70;99.90;;;-141.84;51.23;19159.47;5074004;28;20752;-55
2022/05/31 05:04:09;;;;;;;4.85;4.35;;;15.30;99.90;;;-141.84;51.59;19153.38;5074176;28;20211;-55
2022/05/31 05:06:38;;;;;;;5.00;4.50;;;15.50;99.90;;;-141.84;52.54;19112.75;5074304;28;20200;-54
2022/05/31 05:09:07;;;;;;;4.82;4.28;;;15.40;99.90;;;-141.84;54.60;19037.56;5073916;28;20213;-55
2022/05/31 05:11:35;;;;;;;4.55;4.15;;;15.00;99.90;;;-141.84;56.67;18935.97;5074162;28;20298;-56
2022/05/31 05:14:03;;;;;;;4.78;3.97;;;14.50;99.90;;;-141.84;58.91;18826.25;5074054;28;20598;-54
2022/05/31 05:16:31;;;;;;;5.65;4.10;;;13.90;99.90;;;-141.84;60.58;18781.53;5074258;28;20197;-54
2022/05/31 05:18:59;;;;;;;5.03;3.73;;;13.50;99.90;;;-141.84;62.23;18759.19;5073672;28;20207;-55
2022/05/31 05:21:27;;;;;;;5.77;4.53;;;13.20;99.90;;;-141.84;62.79;18742.94;5073745;28;20762;-57
2022/05/31 05:23:56;;;;;;;6.97;4.90;;;13.10;99.90;;;-141.84;62.72;18765.28;5073165;28;20311;-56
2022/05/31 05:26:25;;;;;;;6.13;5.30;;;13.20;99.90;;;-141.84;58.91;18850.63;5073811;28;20573;-58
2022/05/31 05:31:40;;;;;;;5.20;4.67;;;13.90;99.90;;;-141.84;57.50;18946.13;5073908;28;20191;-58
2022/05/31 05:34:09;;;;;;;7.60;5.05;;;14.10;99.90;;;-141.84;56.59;18891.25;5073779;28;20200;-55
2022/05/31 05:36:37;;;;;;;5.63;5.03;;;14.20;99.90;;;-141.84;56.39;18962.38;5073736;28;20200;-57
2022/05/31 05:39:10;;;;;;;5.27;4.40;;;14.50;99.90;;;-141.84;56.95;18913.59;5073794;28;20291;-56
2022/05/31 05:41:41;;;;;;;7.60;5.03;;;14.40;99.90;;;-141.84;58.74;18842.50;5073176;28;20718;-53
2022/05/31 05:44:10;;;;;;;8.67;5.80;;;14.20;99.90;;;-141.84;59.50;18852.66;5073481;28;20212;-55
2022/05/31 05:46:38;;;;;;;9.20;5.90;;;14.10;99.90;;;-141.84;59.46;18870.94;5073419;28;20279;-52
2022/05/31 05:49:06;;;;;;;6.30;5.60;;;14.20;99.90;;;-141.84;57.89;18911.56;5073162;28;20924;-55
2022/05/31 05:51:34;;;;;;;6.37;5.50;;;14.40;99.90;;;-141.84;56.71;18952.22;5073495;28;20236;-55
2022/05/31 05:54:03;;;;;;;6.10;5.30;;;14.70;99.90;;;-141.84;56.82;18923.78;5073185;28;20743;-56
2022/05/31 05:56:31;;;;;;;8.33;5.70;;;14.80;99.90;;;-141.84;57.30;18931.91;5072891;28;20291;-56
2022/05/31 05:59:01;;;;;;;6.27;5.67;;;14.80;99.90;;;-141.84;57.15;18933.94;5073292;28;20197;-56
2022/05/31 06:01:37;;;;;;;6.68;5.88;;;14.80;99.90;;;-141.84;56.34;18992.84;5073240;28;20220;-54
2022/05/31 06:04:32;;;;;;;6.90;5.70;;;14.90;99.90;;;-141.84;55.71;19011.13;5073061;28;20197;-56
2022/05/31 06:07:11;;;;;;;6.57;5.50;;;15.00;99.90;;;-141.84;55.54;18968.47;5072898;28;20602;-56
2022/05/31 06:09:43;;;;;;;5.70;5.20;;;15.20;99.90;;;-141.84;53.96;19041.63;5073155;28;20191;-53
2022/05/31 06:12:18;;;;;;;5.20;4.70;;;15.30;99.90;;;-141.84;53.55;19023.34;5072832;28;20209;-56
2022/05/31 06:14:55;;;;;;;5.23;4.73;;;15.40;99.90;;;-141.84;53.98;19037.56;5073083;28;20181;-57
2022/05/31 06:17:37;;;;;;;6.77;5.13;;;15.40;99.90;;;-141.84;53.24;19066.00;5072805;28;20225;-58
2022/05/31 06:20:09;;;;;;;8.47;5.17;;;15.70;99.90;;;-141.84;52.92;19074.13;5072976;28;20192;-57
2022/05/31 06:22:40;;;;;;;5.40;4.80;;;15.70;99.90;;;-141.84;52.90;19061.94;5072461;28;20718;-55
2022/05/31 06:25:11;;;;;;;6.65;4.32;;;15.70;99.90;;;-141.84;52.56;19080.22;5072850;28;20181;-57
2022/05/31 06:27:39;;;;;;;6.00;4.65;;;15.80;99.90;;;-141.84;52.11;19094.44;5072687;28;20192;-56
2022/05/31 06:30:11;;;;;;;5.53;4.95;;;15.80;99.90;;;-141.84;51.85;19124.94;5072122;28;20297;-54
2022/05/31 06:32:39;;;;;;;5.35;4.30;;;16.00;99.90;;;-141.84;51.60;19145.25;5072823;28;20627;-56
2022/05/31 06:35:08;;;;;;;5.78;4.38;;;16.20;99.90;;;-141.84;50.48;19159.47;5071307;28;20586;-57
2022/05/31 06:37:36;;;;;;;5.60;4.28;;;16.30;99.90;;;-141.84;49.15;19181.81;5072498;28;20239;-58
2022/05/31 06:40:09;;;;;;;5.75;3.83;;;16.20;99.90;;;-141.84;49.02;19167.59;5072191;28;20213;-54
2022/05/31 06:42:37;;;;;;;4.78;3.90;;;16.10;99.90;;;-141.84;50.37;19139.16;5071965;28;20679;-53
2022/05/31 06:45:07;;;;;;;5.93;3.95;;;16.00;99.90;;;-141.84;51.16;19135.09;5072411;28;20205;-57
2022/05/31 06:47:37;;;;;;;5.88;3.53;;;16.00;99.90;;;-141.84;51.34;19149.31;5072274;28;20299;-54
2022/05/31 06:50:06;;;;;;;4.05;3.70;;;16.10;99.90;;;-141.84;50.39;19185.88;5072082;28;20737;-58
2022/05/31 06:58:11;;;;;;;6.30;3.78;;;16.80;99.90;;;-141.84;46.86;19311.88;5033024;28;20572;-56
2022/05/31 07:00:40;;;;;;;4.47;3.70;;;16.90;99.90;;;-141.84;46.05;19374.88;5071210;28;20276;-57
2022/05/31 07:03:12;;;;;;;5.60;3.40;;;17.20;99.90;;;-141.84;45.83;19356.59;5071871;28;20215;-54
2022/05/31 07:05:41;;;;;;;5.50;3.60;;;17.20;99.90;;;-141.84;45.74;19364.72;5071936;28;20232;-56
2022/05/31 07:08:11;;;;;;;3.45;2.80;;;17.10;99.90;;;-141.84;45.62;19368.78;5070966;28;20268;-54
2022/05/31 07:10:40;;;;;;;5.93;2.95;;;17.20;99.90;;;-141.84;47.17;19330.16;5071501;28;20291;-56
2022/05/31 07:13:08;;;;;;;4.65;3.05;;;17.30;99.90;;;-141.84;46.79;19374.88;5071330;28;20201;-56
2022/05/31 07:15:36;;;;;;;4.22;3.40;;;17.30;99.90;;;-141.84;46.44;19403.31;5071704;28;20222;-54
2022/05/31 07:18:25;;;;;;;5.07;3.05;;;17.40;99.90;;;-141.84;45.56;19397.22;5071346;28;20219;-56
2022/05/31 07:20:53;;;;;;;4.53;3.15;;;17.60;99.90;;;-141.84;46.22;19383.00;5071652;28;20287;-56
2022/05/31 07:23:21;;;;;;;4.82;3.35;;;17.40;99.90;;;-141.84;46.07;19383.00;5071204;28;20715;-57
2022/05/31 07:25:49;;;;;;;5.43;3.50;;;17.20;99.90;;;-141.84;46.33;19383.00;5052730;28;20311;-56
2022/05/31 07:28:17;;;;;;;4.07;3.58;;;17.10;99.90;;;-141.84;45.79;19378.94;5057813;28;20205;-54
2022/05/31 07:30:45;;;;;;;4.30;3.30;;;17.10;99.90;;;-141.84;47.24;19320.00;5050206;28;20284;-52
2022/05/31 07:33:13;;;;;;;4.10;3.22;;;17.00;99.90;;;-141.84;47.11;19305.78;5049948;28;20257;-56
2022/05/31 07:36:05;;;;;;;4.18;3.60;;;16.70;99.90;;;-141.84;47.30;19275.31;5049858;28;20325;-54
2022/05/31 07:38:33;;;;;;;5.18;3.20;;;16.60;99.90;;;-141.84;48.67;19198.09;5050167;28;20229;-56
2022/05/31 07:41:01;;;;;;;4.68;3.15;;;16.10;99.90;;;-141.84;49.97;19155.41;5049626;28;20225;-56
2022/05/31 07:43:29;;;;;;;3.97;3.60;;;15.80;99.90;;;-141.84;51.21;19084.28;5049866;28;20229;-56
2022/05/31 07:46:05;;;;;;;7.10;4.07;;;15.60;99.90;;;-141.84;51.66;19098.50;5050169;28;20577;-52
2022/05/31 07:48:34;;;;;;;4.83;3.57;;;15.40;99.90;;;-141.84;51.40;19102.56;5050240;28;20201;-56
2022/05/31 07:51:04;;;;;;;4.15;3.50;;;15.50;99.90;;;-141.84;51.12;19120.88;5049794;28;20236;-55
2022/05/31 07:53:33;;;;;;;5.63;3.53;;;15.50;99.90;;;-141.84;50.69;19122.91;5049906;28;20227;-56
2022/05/31 07:56:06;;;;;;;4.75;3.83;;;15.70;99.90;;;-141.84;51.64;19137.13;5049807;28;20643;-56
2022/05/31 07:58:36;;;;;;;4.85;3.92;;;15.70;99.90;;;-141.84;51.53;19189.97;5049972;28;20248;-56
2022/05/31 08:01:08;;;;;;;4.10;3.30;;;15.80;99.90;;;-141.84;51.34;19153.38;5049529;28;20212;-50
2022/05/31 08:03:37;;;;;;;5.88;3.80;;;15.90;99.90;;;-141.84;51.92;19163.53;5050003;28;20201;-56
2022/05/31 08:06:12;;;;;;;4.28;3.58;;;15.90;99.90;;;-141.84;51.78;19110.72;5049588;28;20269;-53
2022/05/31 08:08:41;;;;;;;4.55;3.20;;;16.00;99.90;;;-141.84;51.52;19157.44;5049563;28;20224;-57
2022/05/31 08:11:13;;;;;;;4.45;3.63;;;16.10;99.90;;;-141.84;50.93;19194.03;5049229;28;20833;-58
2022/05/31 08:13:42;;;;;;;4.47;3.50;;;16.10;99.90;;;-141.84;50.78;19167.59;5063263;28;20315;-57
2022/05/31 08:16:13;;;;;;;4.85;3.40;;;16.20;99.90;;;-141.84;50.56;19163.53;5069768;28;20196;-57
2022/05/31 08:18:43;;;;;;;4.60;3.38;;;16.10;99.90;;;-141.84;50.25;19214.34;5069832;28;20633;-57
2022/05/31 08:21:16;;;;;;;8.02;4.28;;;16.20;99.90;;;-141.84;50.09;19169.63;5069627;28;20228;-59
2022/05/31 08:23:45;;;;;;;4.30;3.88;;;16.20;99.90;;;-141.84;51.17;19173.69;5069358;28;20238;-56
2022/05/31 08:26:13;;;;;;;3.85;3.40;;;16.10;99.90;;;-141.84;51.42;19169.63;5068881;28;20231;-58
2022/05/31 08:28:41;;;;;;;5.50;3.70;;;16.10;99.90;;;-141.84;51.37;19175.72;5069234;28;20230;-58
2022/05/31 08:31:13;;;;;;;5.15;3.55;;;16.20;99.90;;;-141.84;50.68;19216.38;5069388;28;20201;-58
2022/05/31 08:33:42;;;;;;;5.13;4.10;;;16.40;99.90;;;-141.84;50.40;19224.50;5069449;28;20722;-57
2022/05/31 08:36:09;;;;;;;4.10;3.70;;;16.30;99.90;;;-141.84;51.07;19149.31;5069099;28;20231;-58
2022/05/31 08:38:40;;;;;;;4.53;3.88;;;16.20;99.90;;;-141.84;50.64;19177.75;5069436;28;20228;-55
2022/05/31 08:41:23;;;;;;;5.60;4.10;;;16.20;99.90;;;-141.84;49.93;19222.47;5069055;28;20776;-57
2022/05/31 08:44:13;;;;;;;3.80;3.50;;;16.30;99.90;;;-141.84;50.52;19185.88;5069466;28;20225;-57
2022/05/31 08:47:00;;;;;;;3.78;3.38;;;16.40;99.90;;;-141.84;50.29;19204.19;5068931;28;20315;-57
2022/05/31 08:52:50;;;;;;;5.60;3.70;;;16.40;99.90;;;-141.84;49.55;19240.75;5069363;28;20224;-56
2022/05/31 08:58:18;;;;;;;5.65;3.08;;;16.60;99.90;;;-141.84;47.25;19265.13;5070174;28;20306;-57
2022/05/31 09:00:50;;;;;;;3.35;3.05;;;16.70;99.90;;;-141.84;47.00;19305.78;5073328;28;20287;-57
2022/05/31 09:03:26;;;;;;;3.35;3.05;;;16.60;99.90;;;-141.84;47.29;19291.56;5072587;28;20579;-59
2022/05/31 09:06:05;;;;;;;2.90;2.60;;;16.60;99.90;;;-141.84;47.19;19313.91;5072580;28;20236;-55
2022/05/31 09:08:39;;;;;;;4.03;2.90;;;16.70;99.90;;;-141.84;47.03;19305.78;5072762;28;20224;-58
2022/05/31 09:11:18;;;;;;;3.45;3.00;;;16.80;99.90;;;-141.84;47.65;19261.06;5072493;28;20235;-59
2022/05/31 09:13:54;;;;;;;4.88;3.50;;;16.80;99.90;;;-141.84;48.46;19281.41;5072561;28;20225;-55
2022/05/31 09:16:44;;;;;;;4.10;3.10;;;16.90;99.90;;;-141.84;48.64;19265.13;5072708;28;20238;-54
2022/05/31 09:19:21;;;;;;;3.10;2.85;;;16.90;99.90;;;-141.84;46.47;19301.72;5072703;28;20185;-55
2022/05/31 09:21:51;;;;;;;4.18;3.30;;;16.90;99.90;;;-141.84;45.47;19387.06;5073213;28;20191;-56
2022/05/31 09:24:22;;;;;;;3.58;2.60;;;17.10;99.90;;;-141.84;45.31;19370.81;5072496;28;20227;-58
2022/05/31 09:27:08;;;;;;;2.53;2.30;;;17.20;99.90;;;-141.84;45.45;19346.44;5072121;28;20579;-59
2022/05/31 09:30:04;;;;;;;3.35;2.25;;;17.20;99.90;;;-141.84;45.43;19397.22;5071253;28;20220;-53
2022/05/31 09:32:51;;;;;;;4.22;3.20;;;17.30;99.90;;;-141.84;43.77;19415.50;5049393;28;20744;-56
2022/05/31 09:35:46;;;;;;;2.97;2.72;;;17.30;99.90;;;-141.84;44.39;19433.81;5050914;28;20308;-55
2022/05/31 09:39:12;;;;;;;3.97;2.50;;;17.50;99.90;;;-141.84;44.21;19415.50;5066557;28;20259;-59
2022/05/31 09:41:48;;;;;;;3.72;2.80;;;17.60;99.90;;;-141.84;44.22;19419.59;5071654;28;20228;-55
2022/05/31 09:44:27;;;;;;;4.63;2.80;;;17.60;99.90;;;-141.84;43.96;19439.91;5072179;28;20452;-58
2022/05/31 09:47:06;;;;;;;4.85;3.40;;;17.60;99.90;;;-141.84;43.68;19458.19;5072355;28;20221;-54
2022/05/31 09:49:39;;;;;;;4.88;2.70;;;17.60;99.90;;;-141.84;44.06;19456.16;5071898;28;20252;-55
2022/05/31 09:52:12;;;;;;;3.15;2.72;;;17.70;99.90;;;-141.84;44.07;19450.06;5072063;28;20197;-56
2022/05/31 09:58:03;;;;;;;3.85;2.53;;;17.60;99.90;;;-141.84;44.40;19409.41;5072214;28;20292;-56
2022/05/31 10:00:32;;;;;;;3.42;2.60;;;17.70;99.90;;;-141.84;44.42;19454.13;5072488;28;20215;-57
2022/05/31 10:03:10;;;;;;;3.80;2.80;;;17.60;99.90;;;-141.84;44.09;19476.47;5071405;28;20238;-56
2022/05/31 10:05:39;;;;;;;3.30;2.67;;;17.70;99.90;;;-141.84;43.30;19458.19;5071632;28;20323;-58
2022/05/31 10:08:16;;;;;;;5.57;3.33;;;17.90;99.90;;;-141.84;43.17;19502.91;5071874;28;20315;-56
2022/05/31 10:10:49;;;;;;;4.47;2.53;;;18.00;99.90;;;-141.84;42.35;19580.13;5071658;28;20256;-54
2022/05/31 10:13:37;;;;;;;4.65;3.13;;;18.20;99.90;;;-141.84;41.34;19574.03;5071182;28;20196;-57
2022/05/31 10:16:20;;;;;;;2.67;2.30;;;18.30;99.90;;;-141.84;41.89;19574.03;5071636;28;20700;-55
2022/05/31 10:18:53;;;;;;;2.55;2.35;;;18.40;99.90;;;-141.84;41.61;19594.34;5071597;28;20280;-57
2022/05/31 10:21:34;;;;;;;2.45;2.25;;;18.50;99.90;;;-141.84;39.74;19657.34;5071397;28;20603;-54
2022/05/31 10:24:17;;;;;;;3.20;2.30;;;18.60;99.90;;;-141.84;39.28;19663.44;5071285;28;20746;-57
2022/05/31 10:27:04;;;;;;;8.55;4.32;;;18.70;99.90;;;-141.84;39.99;19665.47;5070660;28;20230;-56
2022/05/31 10:29:43;;;;;;;6.10;3.80;;;18.80;99.90;;;-141.84;40.09;19675.63;5070844;28;20734;-56
2022/05/31 10:32:45;;;;;;;6.43;4.53;;;18.80;99.90;;;-141.84;39.62;19683.78;5071117;28;20304;-54
2022/05/31 10:35:19;;;;;;;3.78;2.90;;;18.80;99.90;;;-141.84;39.23;19750.84;5063701;28;20342;-54
2022/05/31 10:38:01;;;;;;;5.88;4.35;;;19.10;99.90;;;-141.84;39.68;19775.22;5070931;28;20323;-56
2022/05/31 10:40:45;;;;;;;2.85;2.42;;;19.30;99.90;;;-141.84;39.13;19754.91;5070690;28;20715;-56
2022/05/31 10:43:35;;;;;;;3.20;2.55;;;19.20;99.90;;;-141.84;38.15;19789.44;5070764;28;20197;-54
2022/05/31 10:46:10;;;;;;;9.40;7.97;;;19.20;99.90;;;-141.84;38.48;19761.00;5071252;28;20216;-55
2022/05/31 10:48:47;;;;;;;4.35;3.45;;;19.30;99.90;;;-141.84;38.60;19771.16;5071839;28;20238;-54